Time;durP1;ratioP1;P1;durP2;ratioP2;P2;SDS_P1;SDS_P2;PMS_P1;PMS_P2;Temp;Humidity;BMP_temperature;BMP_pressure;BME280_temperature;BME280_humidity;BME280_pressure;Samples;Min_cycle;Max_cycle;Signal;HPM_P1;HPM_P2
2023/01/24 00:01:21;;;;;;;86.27;46.13;;;;;;;;;;5068874;28;20273;-79
2023/01/24 00:03:47;;;;;;;88.33;45.03;;;;;;;;;;5071063;28;20177;-79
2023/01/24 00:06:13;;;;;;;87.07;44.37;;;;;;;;;;5053591;28;20170;-79
2023/01/24 00:08:39;;;;;;;96.07;46.60;;;;;;;;;;5064339;28;20264;-79
2023/01/24 00:11:06;;;;;;;83.27;45.37;;;;;;;;;;5052919;28;20189;-80
2023/01/24 00:13:32;;;;;;;96.40;46.80;;;;;;;;;;5052593;28;20204;-79
2023/01/24 00:16:02;;;;;;;86.00;44.57;;;;;;;;;;5052112;28;20242;-80
2023/01/24 00:18:28;;;;;;;87.43;44.87;;;;;;;;;;5050235;28;20268;-79
2023/01/24 00:21:00;;;;;;;85.67;45.60;;;;;;;;;;5051143;28;20219;-80
2023/01/24 00:23:26;;;;;;;93.93;46.97;;;;;;;;;;5068294;28;20212;-79
2023/01/24 00:25:52;;;;;;;86.87;44.17;;;;;;;;;;5052727;28;20204;-78
2023/01/24 00:28:18;;;;;;;86.73;45.37;;;;;;;;;;5051204;28;20184;-80
2023/01/24 00:30:44;;;;;;;98.30;46.30;;;;;;;;;;5053627;28;20173;-80
2023/01/24 00:33:10;;;;;;;93.37;45.97;;;;;;;;;;5051562;28;20230;-80
2023/01/24 00:35:36;;;;;;;91.50;44.83;;;;;;;;;;5067848;28;20182;-79
2023/01/24 00:38:02;;;;;;;92.37;46.37;;;;;;;;;;5052696;28;20276;-80
2023/01/24 00:40:28;;;;;;;87.53;44.70;;;;;;;;;;5052646;28;20181;-80
2023/01/24 00:42:54;;;;;;;92.77;46.60;;;;;;;;;;5052767;28;20622;-79
2023/01/24 00:45:20;;;;;;;88.83;46.13;;;;;;;;;;5074777;28;20173;-79
2023/01/24 00:47:46;;;;;;;84.30;45.70;;;;;;;;;;5056889;28;20260;-81
2023/01/24 00:50:12;;;;;;;96.17;46.03;;;;;;;;;;5056503;28;20228;-78
2023/01/24 00:52:38;;;;;;;87.90;45.13;;;;;;;;;;5056638;28;20185;-80
2023/01/24 00:55:04;;;;;;;85.40;44.73;;;;;;;;;;5073732;28;20653;-79
2023/01/24 00:57:30;;;;;;;90.40;46.33;;;;;;;;;;5053890;28;20641;-80
2023/01/24 00:59:56;;;;;;;94.50;46.57;;;;;;;;;;5054177;28;21005;-80
2023/01/24 01:02:22;;;;;;;88.13;45.57;;;;;;;;;;5056170;28;20272;-78
2023/01/24 01:04:48;;;;;;;85.17;44.50;;;;;;;;;;5054200;28;20287;-79
2023/01/24 01:07:14;;;;;;;90.43;46.20;;;;;;;;;;5088528;28;20185;-80
2023/01/24 01:09:40;;;;;;;92.40;45.67;;;;;;;;;;5053528;28;20178;-79
2023/01/24 01:12:06;;;;;;;97.00;46.17;;;;;;;;;;5054625;28;20189;-78
2023/01/24 01:14:32;;;;;;;94.47;45.87;;;;;;;;;;5055639;28;20724;-80
2023/01/24 01:16:58;;;;;;;91.20;44.10;;;;;;;;;;5056166;28;20247;-80
2023/01/24 01:19:24;;;;;;;92.27;47.47;;;;;;;;;;5072207;28;20177;-79
2023/01/24 01:21:50;;;;;;;96.43;45.50;;;;;;;;;;5056288;28;20172;-80
2023/01/24 01:24:16;;;;;;;88.40;45.37;;;;;;;;;;5052768;28;20178;-81
2023/01/24 01:26:42;;;;;;;97.23;46.03;;;;;;;;;;5055352;28;20645;-80
2023/01/24 01:29:08;;;;;;;89.97;46.73;;;;;;;;;;5056112;28;20184;-80
2023/01/24 01:31:35;;;;;;;89.87;46.27;;;;;;;;;;5054064;28;20186;-79
2023/01/24 01:34:01;;;;;;;96.30;45.13;;;;;;;;;;5054956;28;20193;-80
2023/01/24 01:36:27;;;;;;;88.60;45.57;;;;;;;;;;5056253;28;20542;-81
2023/01/24 01:38:53;;;;;;;84.47;44.67;;;;;;;;;;5072564;28;20185;-78
2023/01/24 01:41:19;;;;;;;96.40;47.87;;;;;;;;;;5057764;28;20207;-80
2023/01/24 01:46:50;;;;;;;86.87;46.27;;;;;;;;;;5055350;28;20224;-78
2023/01/24 01:49:20;;;;;;;90.77;43.80;;;;;;;;;;5063647;28;20221;-80
2023/01/24 01:51:47;;;;;;;95.40;47.43;;;;;;;;;;5053897;28;20170;-80
2023/01/24 01:54:31;;;;;;;84.53;46.03;;;;;;;;;;5051513;28;20222;-81
2023/01/24 01:57:17;;;;;;;90.10;45.27;;;;;;;;;;5067189;28;20190;-79
2023/01/24 02:00:00;;;;;;;83.33;42.93;;;;;;;;;;5065481;28;20630;-78
2023/01/24 02:02:27;;;;;;;87.13;46.50;;;;;;;;;;5067537;28;20220;-79
2023/01/24 02:04:55;;;;;;;82.90;45.23;;;;;;;;;;5067571;28;20795;-79
2023/01/24 02:07:29;;;;;;;84.30;43.10;;;;;;;;;;5044400;28;20193;-81
2023/01/24 02:09:55;;;;;;;96.00;44.20;;;;;;;;;;5064622;28;20546;-78
2023/01/24 02:12:24;;;;;;;91.70;45.47;;;;;;;;;;5052276;28;20174;-79
2023/01/24 02:17:40;;;;;;;87.10;44.20;;;;;;;;;;5052421;28;20194;-78
2023/01/24 02:20:09;;;;;;;90.23;45.43;;;;;;;;;;5067966;28;20695;-78
2023/01/24 02:22:44;;;;;;;86.90;43.73;;;;;;;;;;5063749;28;20183;-78
2023/01/24 02:25:13;;;;;;;89.80;45.13;;;;;;;;;;5042250;28;20193;-80
2023/01/24 02:27:39;;;;;;;95.03;45.43;;;;;;;;;;5068124;28;20184;-79
2023/01/24 02:30:05;;;;;;;80.90;43.63;;;;;;;;;;5050712;28;20181;-78
2023/01/24 02:35:35;;;;;;;92.37;45.33;;;;;;;;;;5051461;28;20549;-77
2023/01/24 02:38:03;;;;;;;93.83;45.20;;;;;;;;;;5051506;28;20711;-80
2023/01/24 02:40:30;;;;;;;95.37;47.60;;;;;;;;;;5034712;28;20328;-78
2023/01/24 02:42:59;;;;;;;93.70;47.37;;;;;;;;;;5034902;28;20251;-79
2023/01/24 02:45:29;;;;;;;98.00;47.27;;;;;;;;;;5034897;28;20695;-80
2023/01/24 02:47:56;;;;;;;91.83;44.77;;;;;;;;;;5066376;28;20174;-80
2023/01/24 02:50:24;;;;;;;94.27;46.63;;;;;;;;;;5083456;28;20689;-80
2023/01/24 02:58:05;;;;;;;87.60;44.60;;;;;;;;;;5055783;28;20192;-80
2023/01/24 02:58:24;;;;;;;94.97;45.60;;;;;;;;;;5070946;28;20185;-80
2023/01/24 03:00:50;;;;;;;94.00;47.40;;;;;;;;;;5072750;28;20170;-80
2023/01/24 03:03:16;;;;;;;97.83;48.07;;;;;;;;;;5053727;28;20187;-78
2023/01/24 03:05:58;;;;;;;88.03;46.00;;;;;;;;;;5057362;28;20185;-79
2023/01/24 03:08:28;;;;;;;88.17;45.03;;;;;;;;;;5053837;28;20189;-80
2023/01/24 03:10:54;;;;;;;90.27;45.77;;;;;;;;;;5053837;28;20219;-78
2023/01/24 03:35:19;;;;;;;90.30;44.87;;;;;;;;;;5072091;28;20266;-80
2023/01/24 03:40:30;;;;;;;80.43;43.53;;;;;;;;;;5069332;28;20681;-79
2023/01/24 03:42:56;;;;;;;82.20;42.87;;;;;;;;;;5067912;28;20201;-79
2023/01/24 03:45:27;;;;;;;88.77;42.70;;;;;;;;;;5068007;28;20216;-79
2023/01/24 03:48:04;;;;;;;87.93;43.20;;;;;;;;;;5056507;28;20615;-79
2023/01/24 03:53:19;;;;;;;88.03;43.03;;;;;;;;;;5068142;28;20199;-78
2023/01/24 03:55:45;;;;;;;86.17;43.57;;;;;;;;;;5051814;28;20526;-78
2023/01/24 03:58:11;;;;;;;89.13;45.37;;;;;;;;;;5051744;28;20177;-79
2023/01/24 04:00:38;;;;;;;92.47;44.17;;;;;;;;;;5050549;28;20201;-78
2023/01/24 04:03:04;;;;;;;80.93;42.20;;;;;;;;;;5050537;28;20224;-79
2023/01/24 04:05:30;;;;;;;86.23;44.20;;;;;;;;;;5053326;28;20622;-78
2023/01/24 04:07:56;;;;;;;83.43;42.53;;;;;;;;;;5053047;28;20269;-80
2023/01/24 04:10:23;;;;;;;85.03;41.90;;;;;;;;;;5051801;28;20273;-80
2023/01/24 04:12:49;;;;;;;80.83;44.30;;;;;;;;;;5052944;28;20185;-80
2023/01/24 04:15:16;;;;;;;85.23;43.37;;;;;;;;;;5052747;28;20234;-80
2023/01/24 04:17:42;;;;;;;90.80;44.57;;;;;;;;;;5057007;28;20218;-81
2023/01/24 04:20:09;;;;;;;76.90;42.87;;;;;;;;;;5057056;28;20180;-79
2023/01/24 04:22:35;;;;;;;84.00;43.07;;;;;;;;;;5073088;28;20266;-79
2023/01/24 04:25:01;;;;;;;82.30;44.50;;;;;;;;;;5057583;28;20211;-79
2023/01/24 04:27:27;;;;;;;91.20;45.60;;;;;;;;;;5057308;28;20653;-79
2023/01/24 04:29:53;;;;;;;86.33;42.90;;;;;;;;;;5057114;28;20196;-79
2023/01/24 04:32:19;;;;;;;88.47;44.00;;;;;;;;;;5067984;28;20666;-78
2023/01/24 04:34:45;;;;;;;81.67;40.93;;;;;;;;;;5057193;28;20215;-78
2023/01/24 04:37:11;;;;;;;83.10;41.53;;;;;;;;;;5074071;28;20896;-78
2023/01/24 04:39:37;;;;;;;80.07;42.80;;;;;;;;;;5071074;28;20177;-78
2023/01/24 04:42:03;;;;;;;84.20;43.27;;;;;;;;;;5058094;28;20561;-80
2023/01/24 04:44:29;;;;;;;82.43;43.47;;;;;;;;;;5056851;28;20181;-79
2023/01/24 04:46:55;;;;;;;80.33;42.23;;;;;;;;;;5056365;28;20177;-78
2023/01/24 04:49:20;;;;;;;89.10;43.47;;;;;;;;;;5055097;28;20323;-79
2023/01/24 04:51:47;;;;;;;87.10;43.73;;;;;;;;;;5059604;28;20185;-78
2023/01/24 04:54:13;;;;;;;73.90;41.80;;;;;;;;;;5059731;28;20688;-80
2023/01/24 04:56:39;;;;;;;82.43;41.53;;;;;;;;;;5071392;28;20185;-78
2023/01/24 04:59:05;;;;;;;82.93;42.17;;;;;;;;;;5056564;28;20588;-81
2023/01/24 05:01:31;;;;;;;78.00;40.43;;;;;;;;;;5054577;28;20185;-80
2023/01/24 05:04:00;;;;;;;88.33;43.90;;;;;;;;;;5070178;28;20177;-80
2023/01/24 05:06:27;;;;;;;82.73;42.90;;;;;;;;;;5073416;28;20695;-79
2023/01/24 05:08:54;;;;;;;80.40;42.30;;;;;;;;;;5066491;28;20193;-78
2023/01/24 05:11:20;;;;;;;73.27;40.97;;;;;;;;;;5056377;28;20185;-78
2023/01/24 05:13:46;;;;;;;75.73;41.87;;;;;;;;;;5058011;28;20200;-78
2023/01/24 05:16:12;;;;;;;77.10;40.57;;;;;;;;;;5074044;28;20188;-79
2023/01/24 05:18:38;;;;;;;81.40;40.87;;;;;;;;;;5056757;28;20215;-79
2023/01/24 05:21:08;;;;;;;81.17;42.03;;;;;;;;;;5057398;28;20192;-80
2023/01/24 05:23:34;;;;;;;81.83;42.07;;;;;;;;;;5055449;28;20200;-79
2023/01/24 05:26:01;;;;;;;83.07;41.23;;;;;;;;;;5071291;28;20209;-79
2023/01/24 05:28:27;;;;;;;75.17;40.20;;;;;;;;;;5053867;28;20196;-79
2023/01/24 05:30:53;;;;;;;74.27;38.97;;;;;;;;;;5056570;28;20622;-78
2023/01/24 05:33:19;;;;;;;78.80;41.33;;;;;;;;;;5057403;28;20543;-78
2023/01/24 05:35:45;;;;;;;68.67;39.37;;;;;;;;;;5054886;28;20181;-78
2023/01/24 05:38:11;;;;;;;72.73;40.87;;;;;;;;;;5070475;28;20184;-79
2023/01/24 05:40:37;;;;;;;71.20;40.93;;;;;;;;;;5053048;28;20188;-79
2023/01/24 05:43:03;;;;;;;74.20;40.83;;;;;;;;;;5056129;28;20168;-79
2023/01/24 05:45:29;;;;;;;76.27;41.03;;;;;;;;;;5054521;28;20193;-79
2023/01/24 05:47:56;;;;;;;81.83;40.70;;;;;;;;;;5070522;28;20238;-80
2023/01/24 05:50:22;;;;;;;68.80;37.60;;;;;;;;;;5056197;28;20248;-80
2023/01/24 05:52:48;;;;;;;81.47;40.13;;;;;;;;;;5072770;28;20617;-79
2023/01/24 05:55:14;;;;;;;80.43;39.70;;;;;;;;;;5055045;28;20216;-79
2023/01/24 05:57:39;;;;;;;73.33;39.83;;;;;;;;;;5053762;28;20177;-80
2023/01/24 06:00:06;;;;;;;75.30;41.10;;;;;;;;;;5054031;28;20189;-79
2023/01/24 06:02:32;;;;;;;84.37;41.53;;;;;;;;;;5068785;28;20243;-80
2023/01/24 06:04:58;;;;;;;78.17;40.90;;;;;;;;;;5072471;28;20700;-79
2023/01/24 06:07:24;;;;;;;76.00;41.30;;;;;;;;;;5071644;28;20184;-82
2023/01/24 06:09:50;;;;;;;74.70;40.10;;;;;;;;;;5052032;28;20174;-79
2023/01/24 06:12:16;;;;;;;82.23;41.70;;;;;;;;;;5052476;28;20187;-79
2023/01/24 06:14:42;;;;;;;78.47;40.93;;;;;;;;;;5054242;28;20740;-79
2023/01/24 06:17:08;;;;;;;85.30;42.57;;;;;;;;;;5053467;28;20199;-80
2023/01/24 06:19:34;;;;;;;88.73;43.47;;;;;;;;;;5052884;28;20217;-78
2023/01/24 06:22:03;;;;;;;82.67;42.90;;;;;;;;;;5053736;28;20177;-79
2023/01/24 06:24:29;;;;;;;78.37;41.47;;;;;;;;;;5054316;28;20554;-79
2023/01/24 06:26:55;;;;;;;85.47;43.63;;;;;;;;;;5054388;28;20255;-80
2023/01/24 06:29:21;;;;;;;80.20;41.27;;;;;;;;;;5053855;28;20182;-79
2023/01/24 06:31:50;;;;;;;73.70;41.50;;;;;;;;;;5052760;28;20192;-79
2023/01/24 06:34:35;;;;;;;82.97;42.27;;;;;;;;;;5054528;28;20570;-78
2023/01/24 06:37:09;;;;;;;74.80;40.27;;;;;;;;;;5051608;28;20174;-80
2023/01/24 06:39:36;;;;;;;82.00;41.83;;;;;;;;;;5068879;28;20630;-78
2023/01/24 06:42:02;;;;;;;85.03;42.87;;;;;;;;;;5071280;28;20187;-78
2023/01/24 06:44:28;;;;;;;73.57;41.03;;;;;;;;;;5068797;28;20184;-79
2023/01/24 06:46:54;;;;;;;77.50;41.17;;;;;;;;;;5053869;28;20188;-80
2023/01/24 06:49:20;;;;;;;79.97;42.40;;;;;;;;;;5071278;28;20217;-80
2023/01/24 06:51:50;;;;;;;77.77;42.07;;;;;;;;;;5071086;28;20181;-79
2023/01/24 06:54:17;;;;;;;83.83;42.10;;;;;;;;;;5061738;28;20201;-80
2023/01/24 06:56:42;;;;;;;83.70;42.37;;;;;;;;;;5054190;28;20181;-80
2023/01/24 06:59:08;;;;;;;88.67;43.53;;;;;;;;;;5054165;28;20184;-80
2023/01/24 07:01:34;;;;;;;81.87;41.87;;;;;;;;;;5087131;28;20508;-80
2023/01/24 07:04:00;;;;;;;79.70;43.00;;;;;;;;;;5073200;28;20232;-80
2023/01/24 07:06:26;;;;;;;80.63;41.37;;;;;;;;;;5053408;28;20181;-79
2023/01/24 07:08:53;;;;;;;73.63;40.67;;;;;;;;;;5069005;28;20197;-79
2023/01/24 07:11:19;;;;;;;76.00;39.67;;;;;;;;;;5064817;28;20646;-80
2023/01/24 07:13:45;;;;;;;78.17;41.60;;;;;;;;;;5102841;28;20683;-80
2023/01/24 07:16:11;;;;;;;81.37;42.63;;;;;;;;;;5057731;28;20236;-79
2023/01/24 07:18:37;;;;;;;78.87;42.90;;;;;;;;;;5042496;28;20185;-80
2023/01/24 07:21:07;;;;;;;76.13;39.97;;;;;;;;;;5048965;28;20584;-80
2023/01/24 07:23:34;;;;;;;78.60;42.40;;;;;;;;;;5053441;28;20177;-80
2023/01/24 07:26:00;;;;;;;73.47;41.40;;;;;;;;;;5050235;28;20532;-80
2023/01/24 07:28:26;;;;;;;79.77;40.50;;;;;;;;;;5035571;28;20174;-79
2023/01/24 07:30:53;;;;;;;81.73;40.10;;;;;;;;;;5053961;28;20181;-80
2023/01/24 07:33:19;;;;;;;72.20;40.70;;;;;;;;;;5048208;28;20634;-79
2023/01/24 07:35:45;;;;;;;79.27;40.40;;;;;;;;;;5066509;28;20662;-80
2023/01/24 07:38:11;;;;;;;81.27;40.37;;;;;;;;;;5069486;28;20177;-80
2023/01/24 07:40:38;;;;;;;83.10;40.83;;;;;;;;;;5051723;28;20242;-80
2023/01/24 07:43:04;;;;;;;75.13;41.77;;;;;;;;;;5053835;28;20176;-79
2023/01/24 07:45:31;;;;;;;76.13;39.27;;;;;;;;;;5065865;28;20176;-80
2023/01/24 07:47:58;;;;;;;76.93;38.50;;;;;;;;;;5068383;28;20523;-79
2023/01/24 07:50:29;;;;;;;69.67;40.27;;;;;;;;;;5085577;28;20228;-80
2023/01/24 07:52:55;;;;;;;74.30;40.97;;;;;;;;;;5069706;28;20224;-81
2023/01/24 07:55:22;;;;;;;72.97;39.77;;;;;;;;;;5069440;28;20205;-80
2023/01/24 07:57:48;;;;;;;83.53;41.87;;;;;;;;;;5053228;28;20277;-80
2023/01/24 08:00:14;;;;;;;78.97;41.67;;;;;;;;;;5052546;28;20446;-80
2023/01/24 08:02:40;;;;;;;75.90;41.53;;;;;;;;;;5063049;28;20189;-80
2023/01/24 08:05:07;;;;;;;76.97;42.00;;;;;;;;;;5062773;28;20200;-80
2023/01/24 08:07:33;;;;;;;78.00;42.07;;;;;;;;;;5068942;28;20196;-79
2023/01/24 08:09:59;;;;;;;74.30;41.53;;;;;;;;;;5054347;28;20209;-79
2023/01/24 08:12:25;;;;;;;71.47;39.70;;;;;;;;;;5069616;28;20541;-79
2023/01/24 08:14:51;;;;;;;70.57;40.37;;;;;;;;;;5051551;28;20205;-79
2023/01/24 08:17:17;;;;;;;69.90;39.93;;;;;;;;;;5053185;28;20348;-79
2023/01/24 08:19:43;;;;;;;74.57;40.63;;;;;;;;;;5050713;28;20169;-79
2023/01/24 08:22:09;;;;;;;69.73;40.40;;;;;;;;;;5071290;28;20177;-80
2023/01/24 08:24:35;;;;;;;69.50;41.93;;;;;;;;;;5052564;28;20188;-80
2023/01/24 08:27:01;;;;;;;76.00;41.20;;;;;;;;;;5052899;28;20193;-80
2023/01/24 08:29:27;;;;;;;75.47;41.57;;;;;;;;;;5062588;28;20188;-79
2023/01/24 08:31:54;;;;;;;72.20;40.77;;;;;;;;;;5052016;28;20189;-78
2023/01/24 08:34:20;;;;;;;73.23;41.80;;;;;;;;;;5095450;28;20284;-79
2023/01/24 08:36:45;;;;;;;72.20;42.47;;;;;;;;;;5052143;28;20211;-78
2023/01/24 08:39:11;;;;;;;75.97;41.60;;;;;;;;;;5067046;28;20212;-80
2023/01/24 08:41:38;;;;;;;83.03;44.50;;;;;;;;;;5061406;28;20190;-79
2023/01/24 08:44:04;;;;;;;78.20;42.90;;;;;;;;;;5049801;28;20685;-79
2023/01/24 08:46:31;;;;;;;89.90;46.90;;;;;;;;;;5049433;28;20208;-81
2023/01/24 08:48:57;;;;;;;79.20;43.53;;;;;;;;;;5053139;28;20233;-81
2023/01/24 08:51:23;;;;;;;76.87;43.40;;;;;;;;;;5052758;28;20185;-79
2023/01/24 08:53:49;;;;;;;77.33;43.33;;;;;;;;;;5066428;28;20205;-80
2023/01/24 08:56:15;;;;;;;73.37;42.97;;;;;;;;;;5091786;28;20240;-81
2023/01/24 08:58:41;;;;;;;77.47;43.23;;;;;;;;;;5069375;28;20185;-81
2023/01/24 09:01:08;;;;;;;74.87;43.43;;;;;;;;;;5084453;28;20176;-80
2023/01/24 09:03:34;;;;;;;77.97;43.77;;;;;;;;;;5049342;28;20189;-81
2023/01/24 09:06:00;;;;;;;79.97;43.47;;;;;;;;;;5065298;28;20196;-79
2023/01/24 09:08:26;;;;;;;75.27;44.60;;;;;;;;;;5055563;28;20211;-81
2023/01/24 09:10:52;;;;;;;82.60;45.73;;;;;;;;;;5071586;28;20224;-81
2023/01/24 09:13:18;;;;;;;81.53;43.70;;;;;;;;;;5073535;28;20208;-80
2023/01/24 09:15:44;;;;;;;93.03;47.20;;;;;;;;;;5073478;28;20240;-80
2023/01/24 09:18:10;;;;;;;88.27;49.63;;;;;;;;;;5056364;28;21140;-80
2023/01/24 09:20:36;;;;;;;90.50;47.87;;;;;;;;;;5056092;28;20661;-82
2023/01/24 09:23:11;;;;;;;87.90;46.30;;;;;;;;;;5053896;28;20181;-80
2023/01/24 09:25:37;;;;;;;75.67;43.17;;;;;;;;;;5072435;28;20222;-81
2023/01/24 09:28:03;;;;;;;94.50;48.53;;;;;;;;;;5053496;28;20265;-77
2023/01/24 09:30:29;;;;;;;78.90;45.17;;;;;;;;;;5052949;28;20213;-78
2023/01/24 09:32:55;;;;;;;84.70;46.10;;;;;;;;;;5086800;28;20181;-79
2023/01/24 09:35:21;;;;;;;77.37;43.93;;;;;;;;;;5055941;28;20291;-78
2023/01/24 09:37:47;;;;;;;82.23;45.23;;;;;;;;;;5088516;28;20272;-79
2023/01/24 09:40:40;;;;;;;77.83;45.67;;;;;;;;;;5089540;28;20196;-77
2023/01/24 09:43:10;;;;;;;91.77;46.77;;;;;;;;;;5070423;28;20880;-80
2023/01/24 09:45:41;;;;;;;81.93;44.93;;;;;;;;;;5055356;28;20219;-81
2023/01/24 09:48:11;;;;;;;75.17;43.57;;;;;;;;;;5055666;28;20598;-78
2023/01/24 09:50:37;;;;;;;79.87;45.10;;;;;;;;;;5042172;28;20686;-77
2023/01/24 09:53:03;;;;;;;89.03;45.67;;;;;;;;;;5036187;28;20189;-80
2023/01/24 09:55:34;;;;;;;80.07;44.53;;;;;;;;;;5034688;28;20225;-78
2023/01/24 09:58:19;;;;;;;77.97;46.13;;;;;;;;;;5032452;28;20265;-80
2023/01/24 10:00:46;;;;;;;77.27;43.43;;;;;;;;;;5035070;28;20189;-81
2023/01/24 10:03:20;;;;;;;83.60;45.83;;;;;;;;;;5049886;28;20522;-79
2023/01/24 10:05:48;;;;;;;84.60;49.60;;;;;;;;;;5048504;28;20247;-79
2023/01/24 10:08:32;;;;;;;86.07;48.73;;;;;;;;;;5035141;28;20193;-79
2023/01/24 10:11:34;;;;;;;103.27;52.37;;;;;;;;;;5049820;28;20190;-78
2023/01/24 10:14:18;;;;;;;87.93;46.37;;;;;;;;;;4990728;28;20210;-79
2023/01/24 10:16:44;;;;;;;114.27;53.97;;;;;;;;;;4972238;28;20957;-78
2023/01/24 10:19:28;;;;;;;96.07;49.90;;;;;;;;;;4987036;28;20279;-80
2023/01/24 10:22:00;;;;;;;89.17;46.67;;;;;;;;;;4988930;28;20192;-78
2023/01/24 10:24:31;;;;;;;90.20;48.40;;;;;;;;;;4982935;28;20208;-79
2023/01/24 10:27:00;;;;;;;83.63;46.47;;;;;;;;;;4968565;28;20554;-79
2023/01/24 10:29:29;;;;;;;76.53;42.40;;;;;;;;;;4973222;28;20191;-79
2023/01/24 10:32:04;;;;;;;76.80;43.07;;;;;;;;;;4975500;28;20183;-79
2023/01/24 10:34:33;;;;;;;85.07;45.67;;;;;;;;;;4973328;28;20215;-78
2023/01/24 10:37:02;;;;;;;81.43;44.63;;;;;;;;;;4985947;28;20263;-79
2023/01/24 10:39:28;;;;;;;78.50;42.93;;;;;;;;;;4981769;28;20270;-80
2023/01/24 10:41:54;;;;;;;77.13;41.80;;;;;;;;;;4967593;28;20875;-81
2023/01/24 10:44:26;;;;;;;72.60;42.60;;;;;;;;;;4989854;28;20238;-79
2023/01/24 10:46:55;;;;;;;76.70;44.10;;;;;;;;;;4993207;28;20187;-80
2023/01/24 10:49:24;;;;;;;74.33;43.77;;;;;;;;;;5043254;28;20322;-81
2023/01/24 10:52:09;;;;;;;73.40;43.93;;;;;;;;;;5068844;28;20297;-78
2023/01/24 10:54:45;;;;;;;74.57;42.47;;;;;;;;;;5053706;28;20267;-79
2023/01/24 10:57:17;;;;;;;72.07;42.57;;;;;;;;;;5072073;28;20185;-79
2023/01/24 10:59:43;;;;;;;72.93;41.60;;;;;;;;;;5070378;28;20188;-80
2023/01/24 11:02:22;;;;;;;74.27;40.47;;;;;;;;;;5052316;28;20269;-79
2023/01/24 11:04:53;;;;;;;73.03;42.27;;;;;;;;;;5086999;28;20253;-80
2023/01/24 11:07:45;;;;;;;67.40;40.20;;;;;;;;;;5072549;28;20173;-80
2023/01/24 11:10:17;;;;;;;64.40;39.20;;;;;;;;;;5062798;28;20186;-79
2023/01/24 11:12:50;;;;;;;59.33;38.10;;;;;;;;;;5083674;28;20234;-78
2023/01/24 11:15:20;;;;;;;65.77;39.27;;;;;;;;;;5053734;28;20569;-79
2023/01/24 11:17:46;;;;;;;72.30;38.40;;;;;;;;;;5053698;28;20263;-79
2023/01/24 11:20:21;;;;;;;72.97;40.93;;;;;;;;;;5053769;28;20576;-80
2023/01/24 11:22:50;;;;;;;78.57;43.43;;;;;;;;;;5085908;28;20708;-79
2023/01/24 11:25:17;;;;;;;70.93;40.83;;;;;;;;;;5054400;28;20188;-79
2023/01/24 11:27:47;;;;;;;63.90;39.30;;;;;;;;;;5069593;28;20541;-80
2023/01/24 11:30:20;;;;;;;68.07;41.60;;;;;;;;;;5052899;28;20278;-80
2023/01/24 11:33:05;;;;;;;66.50;39.33;;;;;;;;;;5071404;28;20231;-79
2023/01/24 11:35:35;;;;;;;65.37;38.33;;;;;;;;;;5070639;28;20204;-78
2023/01/24 11:38:11;;;;;;;61.37;37.63;;;;;;;;;;5052443;28;20276;-79
2023/01/24 11:40:45;;;;;;;64.57;38.90;;;;;;;;;;5086844;28;20180;-79
2023/01/24 11:43:24;;;;;;;70.87;40.70;;;;;;;;;;5067515;28;20672;-78
2023/01/24 11:46:02;;;;;;;71.83;40.13;;;;;;;;;;5067935;28;20235;-79
2023/01/24 11:48:49;;;;;;;70.20;42.03;;;;;;;;;;5052727;28;20185;-79
2023/01/24 11:51:15;;;;;;;81.27;42.00;;;;;;;;;;5053255;28;20192;-79
2023/01/24 11:54:07;;;;;;;70.60;42.60;;;;;;;;;;5052400;28;20653;-78
2023/01/24 11:56:36;;;;;;;72.23;42.60;;;;;;;;;;5057226;28;20185;-79
2023/01/24 11:59:02;;;;;;;70.37;42.07;;;;;;;;;;5052220;28;20169;-81
2023/01/24 12:01:35;;;;;;;69.60;43.37;;;;;;;;;;5054547;28;20173;-79
2023/01/24 12:04:07;;;;;;;69.93;42.50;;;;;;;;;;5042084;28;20181;-80
2023/01/24 12:06:44;;;;;;;76.30;44.23;;;;;;;;;;5052870;28;20211;-79
2023/01/24 12:09:29;;;;;;;63.83;41.60;;;;;;;;;;5053338;28;20180;-78
2023/01/24 12:12:04;;;;;;;69.43;42.03;;;;;;;;;;5052321;28;20547;-80
2023/01/24 12:14:52;;;;;;;71.40;41.73;;;;;;;;;;5070040;28;20681;-79
2023/01/24 12:17:26;;;;;;;79.00;43.00;;;;;;;;;;5060770;28;20178;-81
2023/01/24 12:20:10;;;;;;;118.00;53.47;;;;;;;;;;5052234;28;20594;-78
2023/01/24 12:22:36;;;;;;;77.63;43.27;;;;;;;;;;5084159;28;20572;-79
2023/01/24 12:25:02;;;;;;;79.63;43.57;;;;;;;;;;5053872;28;20259;-79
2023/01/24 12:27:31;;;;;;;84.23;43.70;;;;;;;;;;5053373;28;20200;-77
2023/01/24 12:30:06;;;;;;;69.77;37.63;;;;;;;;;;5052845;28;20645;-79
2023/01/24 12:32:37;;;;;;;91.63;48.40;;;;;;;;;;5053124;28;20181;-79
2023/01/24 12:35:20;;;;;;;70.10;40.73;;;;;;;;;;5067329;28;20201;-79
2023/01/24 12:37:52;;;;;;;69.77;40.87;;;;;;;;;;5052694;28;20263;-80
2023/01/24 12:40:36;;;;;;;62.57;37.30;;;;;;;;;;5073256;28;20605;-79
2023/01/24 12:43:07;;;;;;;64.80;37.97;;;;;;;;;;5074714;28;20264;-78
2023/01/24 12:45:40;;;;;;;66.03;37.80;;;;;;;;;;5059533;28;20213;-79
2023/01/24 12:48:13;;;;;;;67.10;39.47;;;;;;;;;;5072017;28;20216;-80
2023/01/24 12:50:57;;;;;;;68.93;37.53;;;;;;;;;;5056148;28;20220;-80
2023/01/24 12:53:47;;;;;;;66.00;39.43;;;;;;;;;;5074554;28;20180;-79
2023/01/24 12:56:16;;;;;;;64.20;38.00;;;;;;;;;;5055133;28;20275;-79
2023/01/24 12:58:43;;;;;;;66.93;39.33;;;;;;;;;;5074631;28;20165;-79
2023/01/24 13:01:17;;;;;;;63.40;37.53;;;;;;;;;;5057129;28;20194;-79
2023/01/24 13:03:46;;;;;;;67.63;38.73;;;;;;;;;;5071013;28;20189;-81
2023/01/24 13:06:21;;;;;;;67.27;38.90;;;;;;;;;;5058320;28;20182;-81
2023/01/24 13:09:06;;;;;;;68.43;40.23;;;;;;;;;;5055931;28;20184;-81
2023/01/24 13:11:32;;;;;;;64.87;39.70;;;;;;;;;;5055555;28;20322;-80
2023/01/24 13:13:58;;;;;;;67.60;40.50;;;;;;;;;;5054492;28;20212;-79
2023/01/24 13:16:43;;;;;;;80.17;43.30;;;;;;;;;;5074303;28;20177;-80
2023/01/24 13:19:18;;;;;;;68.73;40.07;;;;;;;;;;5070272;28;20172;-80
2023/01/24 13:22:13;;;;;;;75.73;42.73;;;;;;;;;;5055587;28;20655;-80
2023/01/24 13:24:39;;;;;;;87.43;44.60;;;;;;;;;;5055757;28;20340;-80
2023/01/24 13:27:26;;;;;;;90.50;46.43;;;;;;;;;;5055705;28;20260;-81
2023/01/24 13:30:10;;;;;;;81.07;45.07;;;;;;;;;;5063426;28;20233;-81
2023/01/24 13:32:38;;;;;;;68.37;41.40;;;;;;;;;;5052528;28;20208;-80
2023/01/24 13:35:13;;;;;;;71.63;41.27;;;;;;;;;;5053235;28;20572;-81
2023/01/24 13:37:39;;;;;;;79.43;44.30;;;;;;;;;;5074982;28;20251;-80
2023/01/24 13:40:07;;;;;;;76.87;43.63;;;;;;;;;;5073958;28;20256;-80
2023/01/24 13:42:33;;;;;;;76.27;43.13;;;;;;;;;;5072403;28;20238;-79
2023/01/24 13:45:19;;;;;;;68.73;39.03;;;;;;;;;;5072594;28;20266;-80
2023/01/24 13:47:45;;;;;;;86.33;45.07;;;;;;;;;;5065975;28;20212;-79
2023/01/24 13:50:12;;;;;;;87.73;42.53;;;;;;;;;;5073080;28;20248;-79
2023/01/24 13:52:39;;;;;;;67.27;37.47;;;;;;;;;;5055170;28;20180;-79
2023/01/24 13:55:18;;;;;;;67.67;39.97;;;;;;;;;;5055880;28;20220;-79
2023/01/24 13:57:44;;;;;;;61.10;37.57;;;;;;;;;;5054606;28;20181;-81
2023/01/24 14:00:12;;;;;;;68.97;38.47;;;;;;;;;;5055063;28;20238;-80
2023/01/24 14:02:43;;;;;;;64.33;38.83;;;;;;;;;;5053908;28;20569;-79
2023/01/24 14:05:32;;;;;;;68.27;38.30;;;;;;;;;;5053682;28;20232;-81
2023/01/24 14:07:58;;;;;;;64.20;37.60;;;;;;;;;;5062695;28;20786;-79
2023/01/24 14:10:38;;;;;;;67.53;39.33;;;;;;;;;;5054547;28;20264;-79
2023/01/24 14:13:04;;;;;;;66.63;37.37;;;;;;;;;;5072163;28;20173;-79
2023/01/24 14:15:39;;;;;;;65.27;37.40;;;;;;;;;;5056414;28;20285;-78
2023/01/24 14:18:25;;;;;;;69.50;39.43;;;;;;;;;;5049638;28;20192;-79
2023/01/24 14:20:51;;;;;;;63.00;36.83;;;;;;;;;;5058730;28;20233;-84
2023/01/24 14:23:21;;;;;;;67.70;38.37;;;;;;;;;;5049080;28;20186;-79
2023/01/24 14:25:50;;;;;;;62.53;38.03;;;;;;;;;;5053417;28;20295;-78
2023/01/24 14:28:25;;;;;;;64.10;38.57;;;;;;;;;;5052005;28;20698;-78
2023/01/24 14:30:59;;;;;;;66.57;37.77;;;;;;;;;;5065101;28;20184;-79
2023/01/24 14:33:40;;;;;;;66.10;38.03;;;;;;;;;;5051352;28;20180;-78
2023/01/24 14:36:14;;;;;;;63.73;37.47;;;;;;;;;;5070484;28;20181;-78
2023/01/24 14:38:40;;;;;;;63.80;38.00;;;;;;;;;;5053164;28;20185;-79
2023/01/24 14:41:15;;;;;;;67.93;39.10;;;;;;;;;;5053380;28;20177;-79
2023/01/24 14:43:42;;;;;;;71.50;38.77;;;;;;;;;;5067638;28;20181;-79
2023/01/24 14:46:12;;;;;;;70.33;41.17;;;;;;;;;;5054849;28;20538;-79
2023/01/24 14:48:38;;;;;;;68.53;39.23;;;;;;;;;;5053138;28;20181;-79
2023/01/24 14:51:06;;;;;;;68.13;39.80;;;;;;;;;;5068903;28;20205;-79
2023/01/24 14:53:33;;;;;;;68.43;39.60;;;;;;;;;;5052059;28;20182;-79
2023/01/24 14:56:08;;;;;;;70.03;39.43;;;;;;;;;;5051726;28;20255;-78
2023/01/24 14:58:33;;;;;;;68.20;39.07;;;;;;;;;;5054177;28;20511;-78
2023/01/24 15:01:00;;;;;;;72.23;39.40;;;;;;;;;;5051570;28;20192;-79
2023/01/24 15:03:28;;;;;;;81.10;48.17;;;;;;;;;;5049160;28;20609;-79
2023/01/24 15:05:56;;;;;;;76.83;43.43;;;;;;;;;;5053136;28;20185;-79
2023/01/24 15:08:24;;;;;;;73.50;41.90;;;;;;;;;;5050280;28;20191;-79